createdAt,value
2022-08-17T00:01:51.316Z,24.10
2022-08-17T00:04:19.843Z,24.20
2022-08-17T00:06:47.546Z,24.20
2022-08-17T00:09:18.704Z,24.30
2022-08-17T00:12:35.495Z,24.30
2022-08-17T00:14:35.989Z,24.40
2022-08-17T00:17:04.588Z,24.40
2022-08-17T00:19:32.858Z,24.40
2022-08-17T00:22:32.534Z,24.40
2022-08-17T00:24:49.724Z,24.50
2022-08-17T00:27:16.643Z,24.50
2022-08-17T00:29:45.478Z,24.40
2022-08-17T00:33:14.414Z,24.50
2022-08-17T00:35:00.238Z,24.40
2022-08-17T00:37:26.995Z,24.40
2022-08-17T00:39:53.970Z,24.40
2022-08-17T00:42:20.743Z,24.40
2022-08-17T00:44:47.985Z,24.30
2022-08-17T00:47:14.755Z,24.20
2022-08-17T00:49:41.478Z,24.20
2022-08-17T00:52:15.604Z,24.20
2022-08-17T00:54:46.467Z,24.20
2022-08-17T00:57:18.354Z,24.10
2022-08-17T01:00:01.513Z,24.10
2022-08-17T01:02:40.369Z,24.00
2022-08-17T01:05:19.460Z,24.00
2022-08-17T01:07:49.339Z,23.90
2022-08-17T01:10:57.311Z,23.90
2022-08-17T01:13:05.721Z,23.80
2022-08-17T01:15:37.973Z,23.80
2022-08-17T01:18:07.819Z,23.70
2022-08-17T01:20:48.330Z,23.70
2022-08-17T01:23:18.520Z,23.70
2022-08-17T01:25:53.110Z,23.60
2022-08-17T01:28:36.498Z,23.60
2022-08-17T01:31:09.642Z,23.60
2022-08-17T01:33:36.721Z,23.50
2022-08-17T01:36:06.875Z,23.50
2022-08-17T01:38:35.936Z,23.50
2022-08-17T01:41:09.480Z,23.40
2022-08-17T01:44:01.958Z,23.40
2022-08-17T01:46:32.305Z,23.40
2022-08-17T01:49:01.184Z,23.40
2022-08-17T01:51:32.705Z,23.40
2022-08-17T01:54:05.077Z,23.40
2022-08-17T01:56:34.038Z,23.30
2022-08-17T01:59:00.817Z,23.30
2022-08-17T02:01:30.856Z,23.30
2022-08-17T02:04:00.583Z,23.30
2022-08-17T02:06:52.617Z,23.30
2022-08-17T02:09:23.439Z,23.30
2022-08-17T02:11:54.781Z,23.30
2022-08-17T02:14:23.763Z,23.30
2022-08-17T02:16:50.758Z,23.20
2022-08-17T02:19:17.883Z,23.20
2022-08-17T02:21:47.724Z,23.10
2022-08-17T02:25:00.419Z,23.10
2022-08-17T02:27:14.219Z,23.10
2022-08-17T02:29:41.035Z,23.10
2022-08-17T02:32:20.727Z,23.00
2022-08-17T02:34:54.638Z,23.00
2022-08-17T02:37:21.342Z,23.00
2022-08-17T02:39:48.158Z,23.00
2022-08-17T02:42:15.461Z,23.00
2022-08-17T02:44:42.917Z,23.00
2022-08-17T02:47:11.078Z,23.00
2022-08-17T02:49:38.173Z,23.00
2022-08-17T02:52:06.997Z,22.90
2022-08-17T02:54:40.030Z,22.90
2022-08-17T02:57:09.627Z,22.80
2022-08-17T02:59:36.702Z,22.80
2022-08-17T03:02:04.747Z,22.80
2022-08-17T03:04:31.736Z,22.70
2022-08-17T03:07:02.730Z,22.70
2022-08-17T03:09:29.486Z,22.70
2022-08-17T03:12:03.803Z,22.70
2022-08-17T03:14:32.243Z,22.70
2022-08-17T03:16:59.315Z,22.70
2022-08-17T03:19:26.094Z,22.70
2022-08-17T03:21:55.069Z,22.70
2022-08-17T03:24:25.171Z,22.70
2022-08-17T03:26:55.825Z,22.70
2022-08-17T03:29:22.578Z,22.70
2022-08-17T03:31:50.346Z,22.60
2022-08-17T03:34:17.929Z,22.60
2022-08-17T03:36:45.033Z,22.60
2022-08-17T03:39:11.775Z,22.60
2022-08-17T03:41:39.204Z,22.60
2022-08-17T03:44:06.101Z,22.60
2022-08-17T03:46:51.359Z,22.60
2022-08-17T03:49:36.510Z,22.60
2022-08-17T03:52:22.194Z,22.60
2022-08-17T03:55:07.757Z,22.60
2022-08-17T03:57:34.492Z,22.60
2022-08-17T04:00:01.421Z,22.50
2022-08-17T04:02:33.622Z,22.60
2022-08-17T04:05:00.742Z,22.50
2022-08-17T04:07:30.699Z,22.60
2022-08-17T04:09:58.058Z,22.50
2022-08-17T04:12:30.962Z,22.50
2022-08-17T04:14:58.415Z,22.50
2022-08-17T04:17:28.637Z,22.50
2022-08-17T04:19:55.670Z,22.50
2022-08-17T04:22:31.159Z,22.50
2022-08-17T04:25:06.640Z,22.50
2022-08-17T04:27:33.451Z,22.50
2022-08-17T04:30:00.933Z,22.40
2022-08-17T04:33:04.850Z,22.50
2022-08-17T04:35:22.602Z,22.40
2022-08-17T04:37:49.899Z,22.40
2022-08-17T04:40:36.036Z,22.50
2022-08-17T04:43:14.526Z,22.50
2022-08-17T04:45:56.163Z,22.50
2022-08-17T04:48:34.807Z,22.50
2022-08-17T04:51:10.019Z,22.50
2022-08-17T04:53:38.987Z,22.50
2022-08-17T04:56:06.053Z,22.50
2022-08-17T04:58:33.008Z,22.50
2022-08-17T05:01:00.148Z,22.50
2022-08-17T05:03:27.122Z,22.50
2022-08-17T05:05:54.423Z,22.50
2022-08-17T05:08:22.285Z,22.60
2022-08-17T05:10:50.037Z,22.60
2022-08-17T05:13:20.122Z,22.60
2022-08-17T05:15:49.034Z,22.70
2022-08-17T05:18:17.434Z,22.70
2022-08-17T05:20:44.867Z,22.70
2022-08-17T05:23:14.710Z,22.70
2022-08-17T05:25:47.879Z,22.80
2022-08-17T05:28:19.578Z,22.70
2022-08-17T05:30:51.097Z,22.70
2022-08-17T05:33:22.490Z,22.70
2022-08-17T05:35:53.190Z,22.80
2022-08-17T05:38:22.464Z,22.80
2022-08-17T05:40:50.352Z,22.80
2022-08-17T05:43:27.599Z,22.90
2022-08-17T05:46:03.650Z,22.90
2022-08-17T05:48:40.476Z,22.90
2022-08-17T05:51:41.495Z,22.90
2022-08-17T05:54:41.942Z,23.00
2022-08-17T05:57:53.666Z,23.00
2022-08-17T06:00:36.348Z,23.00
2022-08-17T06:03:29.830Z,23.10
2022-08-17T06:06:17.223Z,23.10
2022-08-17T06:09:05.518Z,23.10
2022-08-17T06:11:45.657Z,23.20
2022-08-17T06:14:58.840Z,23.30
2022-08-17T06:17:27.454Z,23.30
2022-08-17T06:19:57.474Z,23.20
2022-08-17T06:22:29.609Z,23.20
2022-08-17T06:25:04.451Z,23.20
2022-08-17T06:27:41.303Z,23.20
2022-08-17T06:30:20.257Z,23.30
2022-08-17T06:32:50.910Z,23.30
2022-08-17T06:35:42.364Z,23.40
2022-08-17T06:38:37.887Z,23.40
2022-08-17T06:41:35.714Z,23.50
2022-08-17T06:44:12.730Z,23.50
2022-08-17T06:47:09.079Z,23.60
2022-08-17T06:50:01.084Z,23.70
2022-08-17T06:52:42.188Z,23.80
2022-08-17T06:55:21.309Z,23.90
2022-08-17T06:57:54.032Z,24.00
2022-08-17T07:00:24.108Z,24.00
2022-08-17T07:03:12.650Z,24.10
2022-08-17T07:05:57.838Z,24.00
2022-08-17T07:08:53.278Z,24.00
2022-08-17T07:11:27.550Z,24.00
2022-08-17T07:14:18.437Z,24.00
2022-08-17T07:16:51.604Z,24.00
2022-08-17T07:19:22.504Z,24.10
2022-08-17T07:22:17.097Z,24.10
2022-08-17T07:24:58.402Z,24.20
2022-08-17T07:27:37.773Z,24.30
2022-08-17T07:30:16.419Z,24.30
2022-08-17T07:32:59.429Z,24.30
2022-08-17T07:35:31.283Z,24.40
2022-08-17T07:38:29.745Z,24.40
2022-08-17T07:41:03.430Z,24.40
2022-08-17T07:43:32.127Z,24.40
2022-08-17T07:46:29.909Z,24.50
2022-08-17T07:49:08.382Z,24.50
2022-08-17T07:51:37.855Z,24.60
2022-08-17T07:54:27.643Z,24.50
2022-08-17T07:57:08.873Z,24.50
2022-08-17T07:59:38.484Z,24.60
2022-08-17T08:02:26.485Z,24.60
2022-08-17T08:05:48.759Z,24.50
2022-08-17T08:08:28.214Z,24.40
2022-08-17T08:11:10.758Z,24.50
2022-08-17T08:13:42.740Z,24.40
2022-08-17T08:16:22.661Z,24.30
2022-08-17T08:18:53.997Z,24.30
2022-08-17T08:21:46.713Z,24.20
2022-08-17T08:24:30.769Z,24.20
2022-08-17T08:27:22.125Z,24.10
2022-08-17T08:30:06.892Z,24.10
2022-08-17T08:33:02.219Z,24.10
2022-08-17T08:35:53.559Z,24.00
2022-08-17T08:38:38.585Z,23.90
2022-08-17T08:41:32.564Z,23.90
2022-08-17T08:44:00.808Z,23.90
2022-08-17T08:46:59.906Z,23.80
2022-08-17T08:50:05.542Z,23.80
2022-08-17T08:52:56.949Z,23.70
2022-08-17T08:55:45.380Z,23.70
2022-08-17T08:58:32.226Z,23.80
2022-08-17T09:01:15.723Z,23.90
2022-08-17T09:04:25.135Z,24.00
2022-08-17T09:07:08.802Z,24.00
2022-08-17T09:10:00.362Z,24.00
2022-08-17T09:12:44.123Z,24.10
2022-08-17T09:15:18.366Z,24.10
2022-08-17T09:19:01.660Z,24.10
2022-08-17T09:21:13.502Z,24.10
2022-08-17T09:23:46.323Z,24.10
2022-08-17T09:26:25.457Z,24.10
2022-08-17T09:29:00.261Z,24.00
2022-08-17T09:31:49.150Z,24.00
2022-08-17T09:34:22.230Z,24.10
2022-08-17T09:36:58.853Z,24.10
2022-08-17T09:39:39.069Z,24.10
2022-08-17T09:42:35.971Z,24.10
2022-08-17T09:45:31.373Z,24.00
2022-08-17T09:48:35.198Z,24.00
2022-08-17T09:51:23.731Z,24.00
2022-08-17T09:53:51.085Z,23.90
2022-08-17T09:56:48.260Z,23.90
2022-08-17T09:59:41.322Z,23.80
2022-08-17T10:02:20.343Z,23.80
2022-08-17T10:04:58.134Z,23.80
2022-08-17T10:07:39.830Z,23.70
2022-08-17T10:10:14.400Z,23.60
2022-08-17T10:13:09.558Z,23.40
2022-08-17T10:15:48.655Z,23.30
2022-08-17T10:18:31.810Z,23.20
2022-08-17T10:21:23.599Z,23.20
2022-08-17T10:24:18.598Z,23.20
2022-08-17T10:26:56.030Z,23.30
2022-08-17T10:29:46.179Z,23.60
2022-08-17T10:32:50.606Z,23.80
2022-08-17T10:35:28.979Z,24.00
2022-08-17T10:37:55.636Z,24.20
2022-08-17T10:40:26.509Z,24.20
2022-08-17T10:43:11.196Z,24.20
2022-08-17T10:46:27.742Z,24.20
2022-08-17T10:48:42.791Z,24.20
2022-08-17T10:51:12.493Z,24.50
2022-08-17T10:53:42.355Z,24.70
2022-08-17T10:56:12.149Z,24.90
2022-08-17T10:58:57.222Z,25.10
2022-08-17T11:01:33.863Z,25.50
2022-08-17T11:04:17.612Z,25.70
2022-08-17T11:07:11.515Z,25.90
2022-08-17T11:09:50.203Z,26.00
2022-08-17T11:12:37.648Z,26.10
2022-08-17T11:15:09.993Z,26.30
2022-08-17T11:17:49.806Z,26.30
2022-08-17T11:20:57.916Z,26.10
2022-08-17T11:23:48.343Z,26.10
2022-08-17T11:26:31.925Z,26.20
2022-08-17T11:29:20.869Z,26.10
2022-08-17T11:32:03.230Z,26.10
2022-08-17T11:34:31.870Z,26.20
2022-08-17T11:37:08.650Z,26.20
2022-08-17T11:39:35.470Z,26.20
2022-08-17T11:42:02.210Z,26.10
2022-08-17T11:44:38.036Z,26.10
2022-08-17T11:48:16.405Z,26.00
2022-08-17T11:51:17.168Z,26.00
2022-08-17T11:53:43.990Z,26.00
2022-08-17T11:56:28.796Z,26.20
2022-08-17T11:58:56.220Z,26.40
2022-08-17T12:01:22.952Z,26.60
2022-08-17T12:03:58.752Z,26.70
2022-08-17T12:06:44.176Z,27.00
2022-08-17T12:09:24.462Z,27.30
2022-08-17T12:12:14.821Z,27.40
2022-08-17T12:15:09.684Z,27.50
2022-08-17T12:17:39.237Z,27.80
2022-08-17T12:20:31.053Z,27.70
2022-08-17T12:23:18.520Z,27.80
2022-08-17T12:26:03.962Z,27.70
2022-08-17T12:28:35.052Z,27.90
2022-08-17T12:31:08.087Z,27.90
2022-08-17T12:33:37.319Z,28.10
2022-08-17T12:36:08.667Z,28.10
2022-08-17T12:38:37.907Z,28.50
2022-08-17T12:41:26.047Z,28.60
2022-08-17T12:43:58.583Z,28.70
2022-08-17T12:46:25.773Z,28.50
2022-08-17T12:48:59.061Z,28.40
2022-08-17T12:51:29.037Z,28.50
2022-08-17T12:53:56.138Z,28.50
2022-08-17T12:56:23.183Z,28.30
2022-08-17T12:58:54.106Z,28.60
2022-08-17T13:01:23.358Z,28.80
2022-08-17T13:03:53.569Z,29.10
2022-08-17T13:06:35.314Z,29.10
2022-08-17T13:09:11.634Z,29.20
2022-08-17T13:11:48.749Z,29.10
2022-08-17T13:14:18.484Z,29.30
2022-08-17T13:16:59.394Z,29.60
2022-08-17T13:19:40.764Z,29.70
2022-08-17T13:22:12.593Z,29.80
2022-08-17T13:25:00.993Z,30.10
2022-08-17T13:27:29.983Z,30.50
2022-08-17T13:30:00.811Z,30.80
2022-08-17T13:32:46.471Z,30.90
2022-08-17T13:35:33.434Z,30.90
2022-08-17T13:38:16.710Z,31.10
2022-08-17T13:40:53.375Z,30.80
2022-08-17T13:43:40.477Z,30.70
2022-08-17T13:46:10.010Z,30.60
2022-08-17T13:48:36.928Z,30.20
2022-08-17T13:51:19.691Z,30.00
2022-08-17T13:53:47.396Z,29.90
2022-08-17T13:56:38.205Z,30.00
2022-08-17T13:59:13.881Z,29.70
2022-08-17T14:01:53.178Z,28.90
2022-08-17T14:04:24.558Z,28.50
2022-08-17T14:07:09.655Z,28.10
2022-08-17T14:09:41.998Z,27.80
2022-08-17T14:12:16.238Z,27.80
2022-08-17T14:14:44.634Z,28.00
2022-08-17T14:17:12.208Z,28.20
2022-08-17T14:19:39.648Z,28.10
2022-08-17T14:22:11.561Z,28.10
2022-08-17T14:24:44.726Z,28.10
2022-08-17T14:27:12.092Z,27.80
2022-08-17T14:29:41.041Z,27.50
2022-08-17T14:32:25.048Z,27.50
2022-08-17T14:34:53.191Z,27.50
2022-08-17T14:37:21.065Z,27.70
2022-08-17T14:39:47.904Z,27.80
2022-08-17T14:42:15.526Z,28.00
2022-08-17T14:44:42.313Z,28.00
2022-08-17T14:47:14.995Z,28.00
2022-08-17T14:49:42.296Z,28.10
2022-08-17T14:52:12.260Z,28.00
2022-08-17T14:54:42.520Z,27.80
2022-08-17T14:57:25.232Z,27.60
2022-08-17T14:59:59.909Z,27.40
2022-08-17T15:02:29.200Z,27.30
2022-08-17T15:05:02.565Z,27.10
2022-08-17T15:07:30.937Z,27.10
2022-08-17T15:10:00.425Z,27.00
2022-08-17T15:12:32.352Z,27.20
2022-08-17T15:15:01.049Z,27.10
2022-08-17T15:17:44.817Z,27.10
2022-08-17T15:20:17.486Z,27.20
2022-08-17T15:22:45.945Z,27.30
2022-08-17T15:25:13.626Z,27.50
2022-08-17T15:27:40.571Z,27.40
2022-08-17T15:30:09.811Z,27.20
2022-08-17T15:32:40.558Z,27.10
2022-08-17T15:35:11.785Z,27.10
2022-08-17T15:37:40.217Z,27.00
2022-08-17T15:40:08.319Z,27.00
2022-08-17T15:42:35.845Z,27.00
2022-08-17T15:45:24.964Z,27.00
2022-08-17T15:47:52.627Z,27.00
2022-08-17T15:50:19.689Z,26.90
2022-08-17T15:52:47.495Z,26.90
2022-08-17T15:55:15.259Z,27.00
2022-08-17T15:57:42.401Z,27.00
2022-08-17T16:00:09.745Z,27.00
2022-08-17T16:03:44.762Z,27.00
2022-08-17T16:05:28.144Z,26.90
2022-08-17T16:07:56.961Z,27.00
2022-08-17T16:10:34.557Z,26.90
2022-08-17T16:13:04.160Z,26.90
2022-08-17T16:15:31.843Z,26.90
2022-08-17T16:17:59.068Z,26.90
2022-08-17T16:20:26.247Z,26.80
2022-08-17T16:22:54.213Z,26.90
2022-08-17T16:25:50.305Z,26.80
2022-08-17T16:28:14.051Z,26.70
2022-08-17T16:30:41.329Z,26.70
2022-08-17T16:33:11.417Z,26.60
2022-08-17T16:35:39.380Z,26.60
2022-08-17T16:38:07.294Z,26.50
2022-08-17T16:40:36.205Z,26.50
2022-08-17T16:43:04.539Z,26.50
2022-08-17T16:45:40.359Z,26.40
2022-08-17T16:48:08.888Z,26.40
2022-08-17T16:50:36.822Z,26.40
2022-08-17T16:53:10.752Z,26.40
2022-08-17T16:55:38.411Z,26.40
2022-08-17T16:58:06.435Z,26.40
2022-08-17T17:00:33.874Z,26.40
2022-08-17T17:03:18.898Z,26.30
2022-08-17T17:06:08.697Z,26.30
2022-08-17T17:08:44.763Z,26.30
2022-08-17T17:11:17.649Z,26.20
2022-08-17T17:13:59.940Z,26.00
2022-08-17T17:16:36.871Z,25.90
2022-08-17T17:19:10.679Z,25.80
2022-08-17T17:22:05.024Z,25.70
2022-08-17T17:24:44.931Z,25.70
2022-08-17T17:27:42.605Z,25.70
2022-08-17T17:30:27.433Z,25.50
2022-08-17T17:33:10.775Z,25.50
2022-08-17T17:36:00.155Z,25.40
2022-08-17T17:38:31.909Z,25.50
2022-08-17T17:41:08.547Z,25.50
2022-08-17T17:43:40.283Z,25.50
2022-08-17T17:46:27.922Z,25.40
2022-08-17T17:48:57.087Z,25.40
2022-08-17T17:51:54.711Z,25.40
2022-08-17T17:54:28.171Z,25.50
2022-08-17T17:57:09.047Z,25.30
2022-08-17T17:59:45.377Z,25.20
2022-08-17T18:02:52.131Z,25.10
2022-08-17T18:05:31.568Z,25.00
2022-08-17T18:08:10.868Z,25.00
2022-08-17T18:11:04.744Z,24.90
2022-08-17T18:14:01.851Z,24.90
2022-08-17T18:16:32.191Z,24.80
2022-08-17T18:19:00.049Z,24.70
2022-08-17T18:21:37.782Z,24.60
2022-08-17T18:24:07.920Z,24.60
2022-08-17T18:26:44.757Z,24.60
2022-08-17T18:29:35.968Z,24.50
2022-08-17T18:32:24.122Z,24.50
2022-08-17T18:34:56.947Z,24.50
2022-08-17T18:37:37.442Z,24.40
2022-08-17T18:40:16.434Z,24.30
2022-08-17T18:43:05.063Z,24.30
2022-08-17T18:45:53.587Z,24.20
2022-08-17T18:48:49.908Z,24.20
2022-08-17T18:51:27.433Z,24.20
2022-08-17T18:54:37.243Z,24.10
2022-08-17T18:57:04.799Z,24.10
2022-08-17T18:59:34.386Z,24.00
2022-08-17T19:02:23.259Z,24.00
2022-08-17T19:05:26.105Z,23.90
2022-08-17T19:07:53.245Z,23.90
2022-08-17T19:10:25.366Z,23.90
2022-08-17T19:13:24.283Z,23.80
2022-08-17T19:16:11.448Z,23.80
2022-08-17T19:18:52.181Z,23.80
2022-08-17T19:21:23.823Z,23.70
2022-08-17T19:24:21.903Z,23.70
2022-08-17T19:26:58.761Z,23.60
2022-08-17T19:29:47.951Z,23.60
2022-08-17T19:32:22.106Z,23.50
2022-08-17T19:34:49.321Z,23.50
2022-08-17T19:37:40.874Z,23.50
2022-08-17T19:40:52.190Z,23.40
2022-08-17T19:43:56.068Z,23.40
2022-08-17T19:47:00.905Z,23.40
2022-08-17T19:49:53.658Z,23.30
2022-08-17T19:52:43.670Z,23.30
2022-08-17T19:55:36.544Z,23.30
2022-08-17T19:58:19.688Z,23.30
2022-08-17T20:00:51.307Z,23.20
2022-08-17T20:03:38.399Z,23.20
2022-08-17T20:06:14.806Z,23.10
2022-08-17T20:08:49.030Z,23.10
2022-08-17T20:11:34.980Z,23.00
2022-08-17T20:14:14.505Z,23.00
2022-08-17T20:16:41.712Z,23.00
2022-08-17T20:19:38.551Z,23.00
2022-08-17T20:22:16.215Z,22.90
2022-08-17T20:24:52.967Z,22.90
2022-08-17T20:27:32.131Z,22.80
2022-08-17T20:30:30.211Z,22.80
2022-08-17T20:32:59.099Z,22.80
2022-08-17T20:35:31.114Z,22.80
2022-08-17T20:38:11.017Z,22.70
2022-08-17T20:41:00.638Z,22.70
2022-08-17T20:43:33.527Z,22.70
2022-08-17T20:46:09.606Z,22.70
2022-08-17T20:48:44.725Z,22.60
2022-08-17T20:51:40.320Z,22.60
2022-08-17T20:54:44.938Z,22.50
2022-08-17T20:57:33.363Z,22.50
2022-08-17T21:00:21.398Z,22.50
2022-08-17T21:02:50.206Z,22.50
2022-08-17T21:05:37.107Z,22.40
2022-08-17T21:08:18.189Z,22.40
2022-08-17T21:10:46.982Z,22.30
2022-08-17T21:13:15.337Z,22.30
2022-08-17T21:15:47.543Z,22.30
2022-08-17T21:18:35.492Z,22.30
2022-08-17T21:21:24.692Z,22.20
2022-08-17T21:24:28.718Z,22.10
2022-08-17T21:27:15.663Z,22.10
2022-08-17T21:30:06.715Z,22.10
2022-08-17T21:32:39.683Z,22.00
2022-08-17T21:35:11.321Z,21.90
2022-08-17T21:37:45.162Z,21.90
2022-08-17T21:40:18.325Z,21.90
2022-08-17T21:42:52.689Z,21.90
2022-08-17T21:45:36.413Z,21.90
2022-08-17T21:48:24.614Z,21.90
2022-08-17T21:51:19.091Z,21.80
2022-08-17T21:53:53.175Z,21.80
2022-08-17T21:56:25.593Z,21.80
2022-08-17T21:59:05.342Z,21.70
2022-08-17T22:01:34.633Z,21.70
2022-08-17T22:04:11.318Z,21.70
2022-08-17T22:06:43.144Z,21.70
2022-08-17T22:09:44.107Z,21.70
2022-08-17T22:12:12.493Z,21.60
2022-08-17T22:14:57.382Z,21.60
2022-08-17T22:17:36.581Z,21.50
2022-08-17T22:20:14.194Z,21.50
2022-08-17T22:23:08.475Z,21.50
2022-08-17T22:26:06.834Z,21.50
2022-08-17T22:28:49.110Z,21.40
2022-08-17T22:31:22.018Z,21.40
2022-08-17T22:33:57.699Z,21.40
2022-08-17T22:36:29.886Z,21.40
2022-08-17T22:39:02.077Z,21.40
2022-08-17T22:41:53.192Z,21.30
2022-08-17T22:44:37.961Z,21.30
2022-08-17T22:47:20.963Z,21.30
2022-08-17T22:50:12.534Z,21.30
2022-08-17T22:53:01.331Z,21.30
2022-08-17T22:55:50.117Z,21.30
2022-08-17T22:58:38.656Z,21.30
2022-08-17T23:01:25.865Z,21.30
2022-08-17T23:04:05.735Z,21.30
2022-08-17T23:06:34.518Z,21.30
2022-08-17T23:09:04.072Z,21.20
2022-08-17T23:11:48.714Z,21.20
2022-08-17T23:14:19.762Z,21.20
2022-08-17T23:16:48.980Z,21.20
2022-08-17T23:19:19.488Z,21.20
2022-08-17T23:21:46.451Z,21.20
2022-08-17T23:24:19.864Z,21.20
2022-08-17T23:26:47.340Z,21.20
2022-08-17T23:29:14.046Z,21.30
2022-08-17T23:31:41.553Z,21.20
2022-08-17T23:34:13.975Z,21.20
2022-08-17T23:36:41.089Z,21.20
2022-08-17T23:39:08.241Z,21.20
2022-08-17T23:41:38.563Z,21.20
2022-08-17T23:44:06.354Z,21.20
2022-08-17T23:46:33.310Z,21.10
2022-08-17T23:49:00.451Z,21.10
2022-08-17T23:51:34.318Z,21.10
2022-08-17T23:54:27.077Z,21.10
2022-08-17T23:56:53.834Z,21.10
2022-08-17T23:59:22.468Z,21.10
